Stony Plain, Canada
Current Conditions -  °F | °C
As of 8:00 PM on Thursday 23 Oct 2014 (Local Time) from CWSE Reporting Station
Clear Clear  
Wind Chill: 47°   Ceiling: Unl
Heat Index: 47°   Visibility: 15mi
Dew Point: 29°   Wind: 3mph
Humidity: 50%   Direction: 290°WNW
Pressure: 29.53"   Gusts: NA
Location:  53.53°N, 114.01°W
Report Text: CWSE 240200Z 29003KT 15SM CLR 09/M01 A2953 RMK SLP999 LAST OBS/NEXT 241100Z T00861014 WSI/SWOB
Loading
Personal Weather Stations






























Interactive Weather Map New forecast layout! Learn more

10-Day Weather Forecast

Advertisements
Track Severe Weather on mobile